Frederika, Iowa
Current Conditions -  °F | °C
As of 10:15 AM on Sunday 23 Nov 2014 (Local Time) from KCCY Reporting Station
Haze Haze  
Wind Chill: 50°   Ceiling: 300
Heat Index: 50°   Visibility: 2mi
Dew Point: 50°   Wind: 12mph
Humidity: 100%   Direction: 170°S
Pressure: 29.49"   Gusts: NA
Location:  42.88°N, 92.31°W
Report Text: KCCY 231615Z AUTO 17010KT 2SM BR OVC003 10/10 A2949 RMK AO2
Loading
Personal Weather Stations






























Interactive Weather Map New forecast layout! Learn more

10-Day Weather Forecast

Advertisements
Track Severe Weather on mobile